Annandale, Pennsylvania
Current Conditions -  °F | °C
As of 8:55 AM on Monday 24 Nov 2014 (Local Time) from KFKL Reporting Station
Overcast Overcast  
Wind Chill: 14°   Ceiling: 2900
Heat Index: 14°   Visibility: 10mi
Dew Point: 11°   Wind: 23mph
Humidity: 82%   Direction: 190°S
Pressure: 29.42"   Gusts: 31mph
Location:  41.1142°N, 79.9031°W
Report Text: KFKL 241355Z AUTO 19020G27KT 10SM FEW023 BKN029 OVC060 14/11 A2942 RMK AO1
Loading
Personal Weather Stations






























Interactive Weather Map New forecast layout! Learn more

10-Day Weather Forecast

Advertisements
Track Severe Weather on mobile